createdAt,value
2022-08-07T00:00:40.125Z,17.92
2022-08-07T00:03:09.421Z,17.94
2022-08-07T00:05:37.468Z,17.97
2022-08-07T00:08:05.751Z,18.00
2022-08-07T00:10:36.255Z,18.03
2022-08-07T00:13:24.065Z,18.02
2022-08-07T00:15:55.658Z,17.99
2022-08-07T00:18:26.516Z,17.92
2022-08-07T00:21:01.889Z,17.87
2022-08-07T00:23:32.873Z,17.87
2022-08-07T00:26:13.189Z,17.91
2022-08-07T00:28:56.421Z,17.92
2022-08-07T00:31:26.185Z,17.94
2022-08-07T00:34:08.577Z,17.92
2022-08-07T00:36:42.627Z,17.86
2022-08-07T00:39:12.788Z,17.84
2022-08-07T00:41:53.102Z,17.83
2022-08-07T00:44:23.374Z,17.81
2022-08-07T00:46:55.443Z,17.79
2022-08-07T00:49:24.994Z,17.76
2022-08-07T00:52:12.673Z,17.71
2022-08-07T00:54:40.979Z,17.69
2022-08-07T00:57:10.086Z,17.66
2022-08-07T00:59:41.961Z,17.63
2022-08-07T01:02:27.834Z,17.63
2022-08-07T01:04:59.302Z,17.61
2022-08-07T01:07:29.618Z,17.58
2022-08-07T01:10:05.861Z,17.56
2022-08-07T01:12:39.162Z,17.54
2022-08-07T01:15:11.925Z,17.48
2022-08-07T01:17:46.063Z,17.45
2022-08-07T01:20:17.004Z,17.43
2022-08-07T01:23:00.837Z,17.41
2022-08-07T01:25:54.513Z,17.38
2022-08-07T01:28:24.844Z,17.35
2022-08-07T01:30:55.444Z,17.33
2022-08-07T01:33:30.114Z,17.30
2022-08-07T01:36:15.077Z,17.30
2022-08-07T01:38:46.944Z,17.27
2022-08-07T01:41:26.169Z,17.26
2022-08-07T01:43:55.257Z,17.25
2022-08-07T01:46:23.612Z,17.20
2022-08-07T01:48:51.615Z,17.16
2022-08-07T01:52:01.032Z,17.08
2022-08-07T01:54:33.111Z,17.02
2022-08-07T01:57:08.470Z,16.90
2022-08-07T01:59:43.784Z,16.81
2022-08-07T02:02:32.976Z,16.76
2022-08-07T02:05:15.783Z,16.74
2022-08-07T02:08:04.292Z,16.75
2022-08-07T02:10:37.094Z,16.72
2022-08-07T02:13:13.139Z,16.56
2022-08-07T02:15:45.470Z,16.47
2022-08-07T02:18:14.645Z,16.41
2022-08-07T02:20:48.709Z,16.37
2022-08-07T02:23:24.142Z,16.31
2022-08-07T02:26:30.698Z,16.24
2022-08-07T02:28:45.150Z,16.21
2022-08-07T02:31:28.819Z,16.20
2022-08-07T02:34:02.966Z,16.20
2022-08-07T02:36:33.969Z,16.17
2022-08-07T02:39:16.477Z,16.09
2022-08-07T02:41:54.484Z,16.05
2022-08-07T02:44:27.563Z,16.08
2022-08-07T02:47:05.400Z,16.14
2022-08-07T02:49:57.529Z,16.19
2022-08-07T02:52:31.990Z,16.13
2022-08-07T02:55:03.998Z,16.11
2022-08-07T02:57:37.690Z,16.09
2022-08-07T03:00:11.021Z,16.12
2022-08-07T03:02:54.616Z,16.14
2022-08-07T03:05:25.690Z,16.07
2022-08-07T03:08:05.277Z,16.10
2022-08-07T03:10:41.059Z,16.20
2022-08-07T03:13:19.419Z,16.23
2022-08-07T03:15:56.360Z,16.21
2022-08-07T03:18:35.017Z,16.21
2022-08-07T03:21:08.580Z,16.18
2022-08-07T03:24:18.063Z,16.18
2022-08-07T03:26:32.277Z,16.17
2022-08-07T03:29:05.135Z,16.18
2022-08-07T03:31:43.409Z,16.20
2022-08-07T03:34:18.493Z,16.20
2022-08-07T03:36:53.673Z,16.12
2022-08-07T03:39:45.930Z,16.10
2022-08-07T03:42:13.318Z,16.09
2022-08-07T03:44:47.110Z,16.06
2022-08-07T03:47:25.361Z,16.01
2022-08-07T03:49:57.594Z,15.96
2022-08-07T03:52:28.739Z,15.92
2022-08-07T03:55:06.048Z,15.90
2022-08-07T03:58:33.469Z,15.89
2022-08-07T04:00:29.136Z,15.85
2022-08-07T04:03:03.905Z,15.75
2022-08-07T04:05:39.552Z,15.70
2022-08-07T04:08:11.553Z,15.65
2022-08-07T04:10:42.301Z,15.61
2022-08-07T04:13:15.327Z,15.56
2022-08-07T04:15:45.742Z,15.52
2022-08-07T04:18:56.739Z,15.47
2022-08-07T04:21:07.096Z,15.46
2022-08-07T04:23:43.255Z,15.49
2022-08-07T04:26:26.400Z,15.53
2022-08-07T04:28:58.554Z,15.57
2022-08-07T04:31:39.020Z,15.61
2022-08-07T04:34:24.067Z,15.62
2022-08-07T04:36:56.142Z,15.64
2022-08-07T04:39:26.207Z,15.67
2022-08-07T04:41:55.100Z,15.72
2022-08-07T04:44:25.828Z,15.79
2022-08-07T04:47:08.682Z,15.84
2022-08-07T04:49:57.589Z,15.87
2022-08-07T04:52:35.171Z,15.94
2022-08-07T04:55:15.602Z,16.06
2022-08-07T04:58:31.545Z,16.17
2022-08-07T05:01:04.412Z,16.32
2022-08-07T05:04:07.951Z,16.46
2022-08-07T05:06:51.487Z,16.52
2022-08-07T05:09:43.196Z,16.61
2022-08-07T05:12:27.158Z,16.69
2022-08-07T05:15:15.960Z,16.73
2022-08-07T05:17:56.517Z,16.77
2022-08-07T05:20:31.940Z,16.88
2022-08-07T05:23:05.077Z,16.94
2022-08-07T05:25:54.381Z,17.02
2022-08-07T05:28:26.855Z,17.16
2022-08-07T05:30:57.803Z,17.33
2022-08-07T05:33:29.464Z,17.32
2022-08-07T05:35:59.953Z,17.41
2022-08-07T05:39:00.770Z,17.47
2022-08-07T05:41:21.840Z,17.63
2022-08-07T05:44:12.212Z,17.69
2022-08-07T05:46:42.905Z,17.84
2022-08-07T05:49:14.297Z,17.96
2022-08-07T05:51:46.546Z,18.09
2022-08-07T05:54:30.541Z,18.23
2022-08-07T05:57:02.589Z,18.36
2022-08-07T05:59:55.578Z,18.46
2022-08-07T06:02:29.093Z,18.62
2022-08-07T06:05:05.920Z,18.73
2022-08-07T06:08:12.919Z,18.94
2022-08-07T06:10:25.222Z,19.12
2022-08-07T06:12:54.453Z,19.28
2022-08-07T06:15:42.419Z,19.38
2022-08-07T06:18:13.751Z,19.51
2022-08-07T06:20:49.801Z,19.68
2022-08-07T06:23:46.663Z,19.83
2022-08-07T06:26:13.818Z,19.80
2022-08-07T06:28:50.125Z,19.79
2022-08-07T06:31:24.292Z,20.00
2022-08-07T06:34:07.425Z,20.12
2022-08-07T06:36:36.866Z,20.34
2022-08-07T06:40:17.600Z,20.38
2022-08-07T06:42:03.662Z,20.53
2022-08-07T06:44:39.621Z,20.79
2022-08-07T06:47:10.433Z,20.92
2022-08-07T06:49:52.186Z,20.95
2022-08-07T06:52:35.476Z,21.17
2022-08-07T06:55:32.303Z,21.33
2022-08-07T06:58:04.918Z,21.57
2022-08-07T07:00:42.299Z,21.81
2022-08-07T07:03:16.997Z,22.06
2022-08-07T07:06:03.343Z,22.21
2022-08-07T07:08:36.109Z,22.35
2022-08-07T07:11:13.561Z,22.53
2022-08-07T07:14:02.542Z,22.73
2022-08-07T07:16:38.991Z,22.90
2022-08-07T07:19:56.226Z,23.09
2022-08-07T07:22:33.874Z,23.28
2022-08-07T07:25:14.037Z,23.43
2022-08-07T07:28:02.498Z,23.63
2022-08-07T07:30:40.152Z,23.71
2022-08-07T07:33:11.993Z,23.97
2022-08-07T07:36:03.989Z,24.15
2022-08-07T07:38:33.526Z,24.35
2022-08-07T07:41:09.165Z,24.60
2022-08-07T07:44:14.637Z,24.66
2022-08-07T07:46:40.088Z,24.79
2022-08-07T07:50:33.819Z,24.96
2022-08-07T07:52:13.748Z,25.12
2022-08-07T07:54:50.621Z,25.28
2022-08-07T07:57:43.680Z,25.38
2022-08-07T08:00:28.880Z,25.54
2022-08-07T08:03:07.863Z,25.78
2022-08-07T08:05:50.761Z,25.97
2022-08-07T08:08:36.997Z,25.96
2022-08-07T08:11:16.039Z,26.10
2022-08-07T08:13:54.852Z,26.31
2022-08-07T08:16:31.126Z,26.61
2022-08-07T08:19:09.676Z,26.88
2022-08-07T08:22:08.105Z,26.86
2022-08-07T08:25:18.220Z,26.77
2022-08-07T08:27:56.458Z,26.78
2022-08-07T08:30:32.123Z,27.11
2022-08-07T08:33:15.101Z,27.37
2022-08-07T08:35:49.971Z,27.52
2022-08-07T08:38:21.549Z,27.68
2022-08-07T08:40:57.281Z,27.70
2022-08-07T08:43:42.170Z,27.77
2022-08-07T08:46:17.881Z,27.93
2022-08-07T08:48:56.509Z,28.08
2022-08-07T08:52:13.100Z,28.08
2022-08-07T08:54:27.248Z,28.20
2022-08-07T08:56:58.559Z,28.42
2022-08-07T08:59:30.495Z,28.63
2022-08-07T09:02:35.194Z,28.85
2022-08-07T09:05:32.345Z,28.99
2022-08-07T09:08:28.509Z,28.85
2022-08-07T09:11:08.264Z,28.99
2022-08-07T09:13:44.296Z,29.13
2022-08-07T09:16:20.620Z,29.48
2022-08-07T09:19:51.289Z,29.80
2022-08-07T09:24:29.451Z,30.11
2022-08-07T09:25:17.396Z,30.43
2022-08-07T09:28:01.075Z,30.39
2022-08-07T09:30:46.220Z,30.05
2022-08-07T09:33:52.714Z,29.66
2022-08-07T09:36:33.545Z,29.42
2022-08-07T09:39:52.606Z,29.40
2022-08-07T09:42:11.898Z,29.51
2022-08-07T09:47:25.740Z,29.38
2022-08-07T09:48:01.287Z,29.35
2022-08-07T09:50:40.283Z,29.34
2022-08-07T09:53:12.481Z,29.26
2022-08-07T09:56:03.959Z,29.34
2022-08-07T09:59:13.920Z,29.73
2022-08-07T10:01:59.544Z,30.16
2022-08-07T10:05:12.204Z,30.59
2022-08-07T10:08:06.763Z,30.76
2022-08-07T10:11:16.325Z,30.71
2022-08-07T10:14:01.571Z,30.98
2022-08-07T10:16:43.197Z,31.15
2022-08-07T10:19:26.891Z,31.15
2022-08-07T10:22:17.231Z,31.01
2022-08-07T10:25:04.467Z,31.19
2022-08-07T10:27:46.992Z,31.10
2022-08-07T10:30:20.547Z,30.99
2022-08-07T10:33:08.302Z,31.07
2022-08-07T10:35:57.498Z,31.20
2022-08-07T10:38:49.181Z,31.35
2022-08-07T10:41:51.329Z,31.17
2022-08-07T10:44:28.756Z,31.35
2022-08-07T10:47:26.981Z,31.68
2022-08-07T10:50:15.074Z,31.66
2022-08-07T10:52:52.803Z,31.55
2022-08-07T10:55:37.142Z,31.49
2022-08-07T10:58:17.409Z,31.62
2022-08-07T11:00:56.146Z,31.39
2022-08-07T11:03:37.300Z,31.62
2022-08-07T11:06:18.639Z,31.85
2022-08-07T11:08:55.567Z,31.99
2022-08-07T11:11:30.975Z,32.09
2022-08-07T11:14:44.286Z,31.80
2022-08-07T11:17:02.107Z,31.66
2022-08-07T11:19:39.041Z,31.68
2022-08-07T11:22:26.289Z,31.82
2022-08-07T11:25:06.813Z,31.74
2022-08-07T11:28:01.713Z,31.61
2022-08-07T11:30:42.222Z,31.51
2022-08-07T11:33:19.844Z,31.67
2022-08-07T11:36:25.099Z,31.78
2022-08-07T11:39:06.974Z,32.10
2022-08-07T11:42:01.323Z,32.30
2022-08-07T11:44:37.511Z,32.35
2022-08-07T11:47:13.545Z,32.50
2022-08-07T11:50:31.332Z,32.61
2022-08-07T11:53:07.996Z,32.64
2022-08-07T11:56:15.754Z,32.46
2022-08-07T11:59:03.153Z,32.13
2022-08-07T12:02:00.036Z,32.16
2022-08-07T12:04:41.132Z,32.17
2022-08-07T12:07:23.599Z,32.15
2022-08-07T12:10:05.837Z,32.27
2022-08-07T12:12:38.615Z,32.36
2022-08-07T12:15:35.423Z,32.30
2022-08-07T12:18:11.244Z,32.05
2022-08-07T12:20:49.252Z,31.88
2022-08-07T12:24:05.501Z,31.82
2022-08-07T12:26:30.104Z,32.08
2022-08-07T12:29:09.925Z,32.30
2022-08-07T12:31:52.779Z,32.29
2022-08-07T12:34:34.012Z,32.08
2022-08-07T12:37:08.617Z,32.18
2022-08-07T12:39:50.750Z,32.14
2022-08-07T12:42:27.561Z,32.13
2022-08-07T12:44:59.384Z,32.14
2022-08-07T12:47:38.190Z,32.37
2022-08-07T12:50:34.009Z,32.32
2022-08-07T12:53:17.507Z,32.23
2022-08-07T12:56:03.303Z,32.25
2022-08-07T12:58:39.510Z,32.38
2022-08-07T13:01:20.444Z,32.37
2022-08-07T13:04:05.726Z,32.44
2022-08-07T13:07:00.307Z,32.47
2022-08-07T13:10:19.842Z,32.56
2022-08-07T13:12:49.978Z,32.65
2022-08-07T13:15:32.067Z,32.46
2022-08-07T13:18:25.888Z,32.35
2022-08-07T13:21:03.671Z,32.46
2022-08-07T13:24:01.537Z,32.68
2022-08-07T13:26:34.910Z,32.85
2022-08-07T13:29:11.210Z,32.92
2022-08-07T13:31:57.195Z,33.06
2022-08-07T13:34:36.468Z,33.21
2022-08-07T13:37:10.781Z,33.33
2022-08-07T13:40:33.275Z,33.31
2022-08-07T13:42:39.690Z,33.10
2022-08-07T13:45:21.238Z,33.02
2022-08-07T13:48:06.842Z,33.35
2022-08-07T13:50:55.673Z,33.26
2022-08-07T13:53:55.062Z,33.12
2022-08-07T13:56:35.044Z,33.41
2022-08-07T13:59:13.869Z,33.71
2022-08-07T14:01:55.434Z,33.50
2022-08-07T14:04:49.187Z,33.93
2022-08-07T14:07:21.065Z,34.18
2022-08-07T14:10:16.413Z,34.19
2022-08-07T14:12:49.253Z,34.07
2022-08-07T14:15:31.692Z,33.95
2022-08-07T14:18:23.917Z,34.05
2022-08-07T14:21:08.389Z,34.01
2022-08-07T14:23:59.899Z,34.22
2022-08-07T14:26:36.924Z,34.54
2022-08-07T14:30:05.164Z,34.76
2022-08-07T14:32:01.037Z,34.83
2022-08-07T14:34:31.788Z,35.02
2022-08-07T14:37:05.073Z,34.83
2022-08-07T14:40:17.991Z,34.72
2022-08-07T14:43:01.341Z,34.25
2022-08-07T14:45:46.404Z,33.96
2022-08-07T14:48:27.309Z,33.93
2022-08-07T14:51:03.277Z,33.62
2022-08-07T14:54:03.801Z,33.87
2022-08-07T14:56:31.976Z,33.98
2022-08-07T14:59:13.830Z,34.12
2022-08-07T15:01:58.417Z,34.30
2022-08-07T15:04:28.631Z,34.52
2022-08-07T15:06:58.119Z,34.66
2022-08-07T15:12:26.300Z,34.92
2022-08-07T15:15:07.550Z,35.56
2022-08-07T15:17:55.474Z,36.28
2022-08-07T15:20:33.238Z,37.07
2022-08-07T15:23:20.087Z,37.58
2022-08-07T15:25:55.595Z,37.87
2022-08-07T15:32:00.766Z,37.82
2022-08-07T15:34:15.064Z,38.05
2022-08-07T15:37:03.852Z,38.49
2022-08-07T15:39:57.312Z,38.88
2022-08-07T15:42:52.065Z,38.74
2022-08-07T15:45:58.175Z,38.70
2022-08-07T15:48:25.916Z,38.78
2022-08-07T15:53:58.063Z,39.43
2022-08-07T15:56:33.918Z,39.94
2022-08-07T15:59:06.519Z,40.10
2022-08-07T16:02:01.753Z,40.34
2022-08-07T16:04:32.547Z,40.63
2022-08-07T16:07:04.681Z,40.73
2022-08-07T16:09:42.570Z,40.88
2022-08-07T16:12:28.794Z,41.04
2022-08-07T16:15:54.474Z,41.26
2022-08-07T16:18:14.371Z,41.34
2022-08-07T16:22:02.979Z,41.37
2022-08-07T16:24:02.236Z,40.86
2022-08-07T16:26:59.612Z,40.13
2022-08-07T16:30:09.994Z,39.68
2022-08-07T16:32:46.309Z,39.64
2022-08-07T16:35:51.554Z,39.48
2022-08-07T16:39:00.068Z,39.36
2022-08-07T16:42:08.745Z,39.24
2022-08-07T16:45:15.444Z,39.09
2022-08-07T16:48:10.236Z,38.91
2022-08-07T16:51:21.801Z,38.31
2022-08-07T16:54:32.968Z,38.25
2022-08-07T16:57:15.524Z,38.48
2022-08-07T16:59:51.731Z,38.53
2022-08-07T17:02:55.555Z,38.71
2022-08-07T17:06:18.971Z,39.28
2022-08-07T17:09:10.365Z,39.84
2022-08-07T17:12:02.045Z,40.33
2022-08-07T17:14:42.729Z,39.99
2022-08-07T17:17:44.068Z,38.76
2022-08-07T17:20:23.016Z,37.83
2022-08-07T17:23:08.763Z,38.05
2022-08-07T17:25:54.404Z,37.81
2022-08-07T17:28:32.146Z,37.41
2022-08-07T17:31:16.936Z,37.75
2022-08-07T17:34:15.428Z,38.59
2022-08-07T17:36:48.970Z,39.28
2022-08-07T17:39:58.295Z,39.75
2022-08-07T17:42:58.244Z,39.38
2022-08-07T17:45:31.603Z,38.65
2022-08-07T17:48:12.770Z,37.18
2022-08-07T17:50:52.431Z,36.28
2022-08-07T17:53:59.812Z,35.38
2022-08-07T17:56:29.002Z,34.61
2022-08-07T17:59:08.935Z,33.92
2022-08-07T18:01:48.609Z,33.21
2022-08-07T18:04:31.168Z,32.71
2022-08-07T18:07:20.898Z,32.26
2022-08-07T18:10:06.002Z,31.86
2022-08-07T18:13:06.786Z,31.55
2022-08-07T18:15:53.609Z,31.17
2022-08-07T18:21:00.984Z,30.83
2022-08-07T18:21:42.212Z,30.59
2022-08-07T18:24:33.342Z,30.30
2022-08-07T18:27:39.283Z,29.99
2022-08-07T18:30:31.453Z,29.55
2022-08-07T18:33:38.925Z,29.31
2022-08-07T18:36:33.764Z,28.95
2022-08-07T18:40:07.483Z,28.73
2022-08-07T18:42:18.623Z,28.53
2022-08-07T18:45:43.561Z,28.41
2022-08-07T18:48:00.769Z,28.26
2022-08-07T18:51:02.548Z,28.05
2022-08-07T18:53:43.517Z,27.84
2022-08-07T18:56:17.327Z,27.64
2022-08-07T18:58:57.792Z,27.46
2022-08-07T19:02:18.067Z,27.32
2022-08-07T19:04:56.238Z,27.14
2022-08-07T19:07:51.664Z,26.99
2022-08-07T19:10:31.436Z,26.78
2022-08-07T19:13:10.292Z,26.54
2022-08-07T19:16:05.677Z,26.31
2022-08-07T19:18:44.554Z,26.10
2022-08-07T19:21:44.010Z,25.92
2022-08-07T19:24:30.487Z,25.77
2022-08-07T19:28:29.693Z,25.64
2022-08-07T19:30:58.293Z,25.44
2022-08-07T19:32:56.273Z,25.25
2022-08-07T19:35:36.445Z,25.04
2022-08-07T19:38:16.821Z,24.85
2022-08-07T19:40:52.494Z,24.69
2022-08-07T19:43:48.661Z,24.55
2022-08-07T19:46:19.040Z,24.41
2022-08-07T19:48:53.612Z,24.26
2022-08-07T19:51:52.423Z,24.16
2022-08-07T19:54:33.180Z,24.07
2022-08-07T19:58:03.205Z,23.94
2022-08-07T19:59:59.442Z,23.80
2022-08-07T20:02:31.434Z,23.66
2022-08-07T20:05:03.849Z,23.56
2022-08-07T20:07:46.400Z,23.46
2022-08-07T20:10:36.645Z,23.37
2022-08-07T20:13:23.123Z,23.28
2022-08-07T20:16:01.776Z,23.15
2022-08-07T20:18:33.750Z,23.03
2022-08-07T20:21:22.027Z,22.91
2022-08-07T20:24:00.386Z,22.84
2022-08-07T20:26:45.262Z,22.76
2022-08-07T20:29:47.174Z,22.64
2022-08-07T20:32:11.474Z,22.56
2022-08-07T20:34:53.289Z,22.44
2022-08-07T20:37:24.737Z,22.35
2022-08-07T20:40:04.021Z,22.26
2022-08-07T20:42:41.385Z,22.19
2022-08-07T20:45:33.280Z,22.14
2022-08-07T20:48:11.060Z,22.12
2022-08-07T20:50:58.581Z,22.11
2022-08-07T20:54:04.784Z,22.09
2022-08-07T20:56:20.214Z,22.02
2022-08-07T20:59:05.870Z,21.95
2022-08-07T21:01:45.200Z,21.92
2022-08-07T21:04:22.897Z,21.95
2022-08-07T21:06:56.825Z,21.97
2022-08-07T21:09:51.865Z,21.95
2022-08-07T21:12:28.677Z,21.91
2022-08-07T21:15:06.486Z,21.87
2022-08-07T21:18:06.471Z,21.83
2022-08-07T21:20:30.130Z,21.75
2022-08-07T21:23:08.169Z,21.72
2022-08-07T21:25:56.329Z,21.71
2022-08-07T21:28:50.408Z,21.74
2022-08-07T21:31:49.287Z,21.72
2022-08-07T21:34:31.974Z,21.69
2022-08-07T21:37:08.029Z,21.71
2022-08-07T21:39:51.851Z,21.71
2022-08-07T21:42:46.040Z,21.71
2022-08-07T21:46:08.946Z,21.68
2022-08-07T21:48:33.619Z,21.60
2022-08-07T21:51:19.797Z,21.50
2022-08-07T21:54:14.030Z,21.42
2022-08-07T21:57:02.167Z,21.35
2022-08-07T22:00:04.673Z,21.30
2022-08-07T22:02:44.091Z,21.23
2022-08-07T22:05:22.065Z,21.21
2022-08-07T22:08:10.525Z,21.14
2022-08-07T22:10:42.457Z,21.07
2022-08-07T22:13:15.813Z,21.01
2022-08-07T22:16:44.187Z,20.95
2022-08-07T22:18:43.132Z,20.91
2022-08-07T22:21:20.445Z,20.84
2022-08-07T22:23:53.727Z,20.80
2022-08-07T22:26:30.092Z,20.74
2022-08-07T22:29:08.892Z,20.65
2022-08-07T22:32:00.468Z,20.61
2022-08-07T22:34:42.075Z,20.58
2022-08-07T22:38:03.029Z,20.52
2022-08-07T22:40:27.831Z,20.42
2022-08-07T22:43:02.716Z,20.33
2022-08-07T22:46:42.422Z,20.23
2022-08-07T22:48:56.025Z,20.08
2022-08-07T22:51:49.384Z,19.94
2022-08-07T22:54:48.811Z,19.78
2022-08-07T22:57:48.434Z,19.72
2022-08-07T23:00:28.772Z,19.65
2022-08-07T23:03:09.573Z,19.56
2022-08-07T23:06:06.993Z,19.50
2022-08-07T23:10:04.946Z,19.44
2022-08-07T23:12:32.753Z,19.40
2022-08-07T23:15:21.863Z,19.38
2022-08-07T23:18:21.838Z,19.27
2022-08-07T23:21:06.046Z,19.14
2022-08-07T23:24:06.328Z,19.09
2022-08-07T23:26:55.098Z,19.07
2022-08-07T23:30:37.968Z,19.03
2022-08-07T23:34:35.252Z,18.99
2022-08-07T23:36:08.141Z,18.91
2022-08-07T23:39:02.559Z,18.94
2022-08-07T23:42:04.176Z,18.95
2022-08-07T23:44:51.352Z,18.86
2022-08-07T23:47:51.595Z,18.84
2022-08-07T23:50:40.398Z,18.82
2022-08-07T23:53:49.655Z,18.73
2022-08-07T23:56:21.039Z,18.67
2022-08-07T23:59:10.892Z,18.63
